• Join FlightAware (Why Join?)
  • Login
  • US Flag 
01:16AM EDT


 

Airport Tracker/Info


-or-


 

Live Flight TrackerFlight Track Log ✈ EJA683 ✈ 10-May-2013 ✈ KMDW - KMMU

Flight Track Log - Related Links

Times and Time Zones

All times are in EDT time to prevent confusion due to time zone crossing. See the EJA683 flight status page for this flight to view local times or setup timezone preferences in your user account.

Time Position Orientation Groundspeed Altitude Reporting Facility
EDT Latitude Longitude Course Direction KTS MPH feet Rate Location/Type
05:04PM 41.8167 -87.7667 90° East 189 217 2,900  Level Chicago TRACON
05:05PM 41.8167 -87.6833 90° East 224 258 4,500 1,020 Climbing Chicago TRACON
05:06PM 41.8167 -87.5833 90° East 262 302 5,000 360 Climbing Chicago TRACON
05:06PM 41.8186 -87.5747 73° East 231 266 5,000 1,680 Level Chicago Center
05:07PM 41.8158 -87.4733 92° East 252 290 7,200 2,580 Climbing Chicago Center
05:08PM 41.8125 -87.3575 92° East 300 345 10,400 3,000 Climbing Chicago Center
05:10PM 41.8000 -87.2403 98° East 321 369 13,500 3,000 Climbing Chicago Center
05:11PM 41.7925 -87.0950 94° East 342 394 16,700 2,760 Climbing Chicago Center
05:12PM 41.8069 -86.9650 81° East 347 399 19,300 2,400 Climbing Chicago Center
05:13PM 41.8189 -86.8278 83° East 365 420 21,700 2,220 Climbing Chicago Center
05:14PM 41.8311 -86.6867 83° East 381 438 24,000 2,100 Climbing Chicago Center
05:15PM 41.8431 -86.5356 84° East 400 460 26,100 1,980 Climbing Chicago Center
05:16PM 41.8561 -86.3825 83° East 410 472 28,100 2,040 Climbing Chicago Center
05:17PM 41.8725 -86.1961 83° East 416 479 30,400 2,100 Climbing Chicago Center
05:18PM 41.8864 -86.0414 83° East 418 481 32,500 1,800 Climbing Chicago Center
05:19PM 41.8978 -85.8883 84° East 414 476 34,200 1,500 Climbing Chicago Center
05:20PM 41.9117 -85.7311 83° East 420 483 35,600 1,320 Climbing Chicago Center
05:21PM 41.9247 -85.5697 84° East 430 495 37,000 1,320 Climbing Chicago Center
05:22PM 41.9383 -85.4078 84° East 431 496 38,400 960 Climbing Chicago Center
05:23PM 41.9533 -85.2325 83° East 432 497 39,000 300 Climbing Cleveland Center
05:24PM 41.9539 -85.0567 90° East 448 516 39,000  Level Cleveland Center
05:25PM 41.9525 -84.8806 91° East 460 529 39,000  Level Cleveland Center
05:26PM 41.9503 -84.7072 91° East 460 529 39,000  Level Cleveland Center
05:27PM 41.9481 -84.5369 91° East 460 529 39,000  Level Cleveland Center
05:28PM 41.9475 -84.3664 90° East 460 529 39,000  Level Cleveland Center
05:29PM 41.9419 -84.2181 93° East 460 529 39,000  Level Cleveland Center
05:30PM 41.9411 -84.0478 90° East 455 524 39,000  Level Cleveland Center
05:31PM 41.9400 -83.8717 90° East 462 532 39,000  Level Cleveland Center
05:32PM 41.9364 -83.6983 92° East 462 532 39,000  Level Cleveland Center
05:33PM 41.9331 -83.5028 91° East 462 532 39,000  Level Cleveland Center
05:34PM 41.9314 -83.3214 91° East 475 547 39,000  Level Cleveland Center
05:35PM 41.9314 -83.1425 90° East 483 556 39,000  Level Cleveland Center
05:36PM 41.9292 -82.9611 91° East 478 550 39,000  Level Cleveland Center
05:37PM 41.9286 -82.7742 90° East 484 557 39,000  Level Cleveland Center
05:38PM 41.9256 -82.5953 91° East 484 557 39,000 180 Level Cleveland Center
05:39PM 41.9244 -82.4111 90° East 484 557 39,400 960 Climbing Cleveland Center
05:40PM 41.9231 -82.2381 91° East 474 545 41,000 780 Climbing Cleveland Center
05:41PM 41.9211 -82.0789 91° East 474 545 41,000  Level Cleveland Center
05:42PM 41.9192 -81.9003 91° East 480 552 41,000  Level Cleveland Center
05:43PM 41.9292 -81.7219 86° East 475 547 41,000  Level Cleveland Center
05:44PM 41.9497 -81.5436 81° East 484 557 41,000  Level Cleveland Center
05:45PM 41.9678 -81.3678 82° East 476 548 41,000  Level Cleveland Center
05:46PM 41.9897 -81.1781 81° East 476 548 41,000  Level Cleveland Center
05:47PM 42.0072 -80.9967 83° East 481 554 41,000  Level Cleveland Center
05:48PM 42.0286 -80.8264 80° East 481 554 41,000  Level Cleveland Center
05:49PM 42.0433 -80.6447 84° East 481 554 41,000  Level Cleveland Center
05:50PM 42.0619 -80.4628 82° East 486 559 41,000  Level Cleveland Center
05:51PM 42.0806 -80.2839 82° East 481 554 41,000  Level Cleveland Center
05:52PM 42.0986 -80.1047 82° East 481 554 41,000  Level Cleveland Center
05:53PM 42.1164 -79.9225 82° East 481 554 41,000  Level Cleveland Center
05:54PM 42.1342 -79.7461 82° East 481 554 41,000  Level Cleveland Center
05:55PM 42.1494 -79.5694 83° East 481 554 41,000  Level Cleveland Center
05:56PM 42.1664 -79.3869 83° East 481 554 41,000  Level Cleveland Center
05:57PM 42.1811 -79.2103 84° East 481 554 41,000  Level Cleveland Center
05:58PM 42.1725 -79.0283 94° East 481 554 41,000  Level Cleveland Center
05:59PM 42.1700 -78.8433 91° East 481 554 41,000  Level Cleveland Center
06:00PM 42.1317 -78.6681 106° East 476 548 41,000  Level Cleveland Center
06:02PM 42.0294 -78.3517 113° Southeast 457 526 41,000  Level New York Center
06:03PM 41.9733 -78.1833 114° Southeast 478 550 41,000  Level New York Center
06:04PM 41.9189 -78.0183 114° Southeast 484 557 41,000 -660 Level New York Center
06:05PM 41.8664 -77.8539 113° Southeast 484 557 39,700 -2,100 Descending New York Center
06:06PM 41.8253 -77.7019 110° East 483 556 36,800 -2,400 Descending New York Center
06:07PM 41.7842 -77.5472 110° East 464 534 35,000 -1,080 Descending New York Center
06:08PM 41.7411 -77.3872 110° East 454 522 34,700 -780 Descending New York Center
06:09PM 41.6981 -77.2244 109° East 459 528 33,500 -1,320 Descending New York Center
06:10PM 41.6528 -77.0564 110° East 471 542 32,200 -1,320 Descending New York Center
06:11PM 41.6092 -76.8969 110° East 466 536 30,900 -1,320 Descending New York Center
06:12PM 41.5653 -76.7375 110° East 460 529 29,600 -960 Descending New York Center
06:13PM 41.5178 -76.5614 110° East 460 529 29,000 -300 Descending New York Center
06:14PM 41.4756 -76.4000 109° East 460 529 29,000 -600 Level New York Center
06:15PM 41.4322 -76.2553 112° Southeast 460 529 27,900 -1,920 Descending New York Center
06:16PM 41.3856 -76.0939 111° Southeast 466 536 25,300 -2,520 Descending New York Center
06:17PM 41.3444 -75.9386 109° East 454 522 22,900 -2,400 Descending New York Center
06:18PM 41.2989 -75.7886 112° Southeast 441 507 20,500 -2,520 Descending New York Center
06:19PM 41.2514 -75.6278 111° Southeast 434 499 17,900 -2,520 Descending New York Center
06:20PM 41.2125 -75.5064 113° Southeast 408 470 15,600 -1,980 Descending New York Center
06:21PM 41.1658 -75.3708 115° Southeast 393 452 14,000 -1,920 Descending New York Center
06:22PM 41.1189 -75.2328 114° Southeast 386 444 11,800 -2,400 Descending New York Center
06:23PM 41.0836 -75.1231 113° Southeast 349 402 9,200 -2,520 Descending New York Center
06:24PM 41.0475 -75.0217 115° Southeast 317 365 6,900 -1,620 Descending New York Center
06:25PM 41.0156 -74.9261 114° Southeast 284 327 6,000 -1,320 Descending New York Center
06:26PM 40.9897 -74.8283 109° East 279 321 4,300 -1,020 Descending New York Center
06:27PM 40.9700 -74.7367 106° East 269 310 4,000 -180 Descending New York Center
06:28PM 40.9503 -74.6447 106° East 264 304 4,000 -540 Level New York Center
06:29PM 40.9322 -74.5586 105° East 257 296 3,000 -540 Descending New York Center
06:30PM 40.9136 -74.4833 108° East 229 264 3,000 -480 Level New York Center
06:31PM 40.8822 -74.4214 124° Southeast 211 243 2,100 -780 Descending New York Center
06:32PM 40.8567 -74.3733 125° Southeast 178 205 1,500 -600 Descending New York Center
06:33PM 40.8236 -74.3633 167° South 153 176 1,000 5,760 Descending New York Center
06:34PM 40.7931 -74.3425 153° Southeast 153 176 13,000 5,940 Climbing New York Center
06:35PM 40.7625 -74.3192 150° Southeast 153 176 13,000  Level New York Center
06:36PM 40.7319 -74.2983 153° Southeast 153 176 13,000  Level New York Center
06:37PM 40.7136 -74.2836 149° Southeast 153 176 13,000  Level New York Center